createdAt,value
2022-08-05T00:12:56.453Z,6.00
2022-08-05T00:32:36.035Z,4.20
2022-08-05T00:52:35.637Z,4.80
2022-08-05T01:12:34.351Z,2.60
2022-08-05T01:32:35.111Z,4.70
2022-08-05T01:52:33.782Z,5.50
2022-08-05T02:12:33.592Z,3.80
2022-08-05T02:32:33.247Z,4.80
2022-08-05T02:52:33.983Z,4.40
2022-08-05T03:12:33.707Z,4.20
2022-08-05T03:32:33.479Z,4.70
2022-08-05T03:52:39.254Z,5.40
2022-08-05T04:12:32.917Z,5.20
2022-08-05T04:32:33.389Z,6.10
2022-08-05T04:52:33.448Z,8.90
2022-08-05T05:12:32.156Z,5.70
2022-08-05T05:52:09.180Z,5.20
2022-08-05T06:12:09.698Z,4.90
2022-08-05T06:32:21.143Z,4.60
2022-08-05T06:52:07.311Z,3.60
2022-08-05T07:12:08.027Z,3.30
2022-08-05T07:32:07.541Z,3.10
2022-08-05T07:52:08.231Z,3.50
2022-08-05T08:12:17.159Z,5.60
2022-08-05T08:32:05.876Z,2.40
2022-08-05T08:52:13.719Z,2.30
2022-08-05T09:12:14.461Z,3.00
2022-08-05T09:32:42.253Z,2.40
2022-08-05T10:13:18.825Z,3.20
2022-08-05T10:33:18.534Z,4.30
2022-08-05T10:53:17.618Z,6.80
2022-08-05T11:13:17.018Z,4.80
2022-08-05T11:33:20.913Z,3.30
2022-08-05T11:53:17.493Z,5.10
2022-08-05T12:13:18.723Z,2.70
2022-08-05T12:33:27.297Z,3.90
2022-08-05T12:53:16.626Z,2.10
2022-08-05T13:14:05.634Z,2.40
2022-08-05T13:34:23.244Z,1.90
2022-08-05T13:53:15.737Z,1.50
2022-08-05T14:13:15.358Z,1.70
2022-08-05T14:33:16.278Z,2.90
2022-08-05T14:53:14.988Z,0.90
2022-08-05T15:13:13.755Z,1.30
2022-08-05T15:33:13.433Z,1.40
2022-08-05T15:53:14.427Z,1.30
2022-08-05T16:13:12.864Z,1.10
2022-08-05T16:33:12.594Z,0.30
2022-08-05T16:53:23.232Z,1.10
2022-08-05T17:13:16.784Z,0.50
2022-08-05T17:33:11.771Z,0.20
2022-08-05T17:53:11.579Z,0.50
2022-08-05T18:13:12.504Z,0.30
2022-08-05T18:33:13.583Z,0.70
2022-08-05T18:53:20.569Z,0.90
2022-08-05T19:13:12.264Z,0.80
2022-08-05T19:33:16.737Z,0.50
2022-08-05T19:53:10.937Z,0.60
2022-08-05T20:13:09.660Z,0.60
2022-08-05T20:33:09.255Z,1.90
2022-08-05T20:53:16.057Z,1.50
2022-08-05T21:13:15.905Z,1.50
2022-08-05T21:33:11.265Z,1.40
2022-08-05T21:53:17.437Z,1.80
2022-08-05T22:13:08.836Z,1.30
2022-08-05T22:33:15.528Z,1.00
2022-08-05T22:53:09.814Z,1.00
2022-08-05T23:13:07.051Z,1.80
2022-08-05T23:33:06.810Z,1.40
2022-08-05T23:53:06.498Z,1.30
